Time;durP1;ratioP1;P1;durP2;ratioP2;P2;SDS_P1;SDS_P2;PMS_P1;PMS_P2;Temp;Humidity;BMP_temperature;BMP_pressure;BME280_temperature;BME280_humidity;BME280_pressure;Samples;Min_cycle;Max_cycle;Signal;HPM_P1;HPM_P2
2021/12/26 00:01:20;;;;;;;1.13;0.90;;;20.50;28.00;20.90;92711.00;;;;10234101;28;45440;-61
2021/12/26 00:06:28;;;;;;;1.13;0.93;;;20.50;28.00;20.90;92723.00;;;;10232827;28;45446;-61
2021/12/26 00:11:29;;;;;;;0.80;0.73;;;20.50;28.00;20.90;92704.00;;;;10232503;28;46000;-62
2021/12/26 00:16:29;;;;;;;0.80;0.80;;;20.50;28.00;20.90;92718.00;;;;10233942;28;45428;-61
2021/12/26 00:21:30;;;;;;;0.90;0.70;;;20.50;28.00;20.90;92713.00;;;;10231864;28;46637;-61
2021/12/26 00:26:32;;;;;;;0.90;0.65;;;20.50;27.90;20.90;92717.00;;;;10231825;28;46244;-61
2021/12/26 00:31:33;;;;;;;0.90;0.75;;;20.40;27.90;20.90;92712.00;;;;10232299;28;45281;-61
2021/12/26 00:36:34;;;;;;;0.77;0.77;;;20.40;27.90;20.90;92724.00;;;;10232074;28;45558;-61
2021/12/26 00:41:35;;;;;;;0.60;0.60;;;20.40;28.00;20.90;92729.00;;;;10231819;28;45416;-61
2021/12/26 00:46:37;;;;;;;0.73;0.70;;;20.40;27.90;20.90;92719.00;;;;10231882;28;45438;-62
2021/12/26 00:51:38;;;;;;;1.42;0.70;;;20.40;28.00;20.90;92722.00;;;;10233302;28;45434;-61
2021/12/26 00:56:39;;;;;;;0.82;0.60;;;20.40;28.00;20.90;92733.00;;;;10231508;28;46449;-61
2021/12/26 01:01:40;;;;;;;0.70;0.70;;;20.40;28.00;20.90;92725.00;;;;10230722;28;45495;-61
2021/12/26 01:06:41;;;;;;;0.70;0.50;;;20.40;28.00;20.80;92709.00;;;;10214571;28;48420;-62
2021/12/26 01:11:48;;;;;;;0.65;0.52;;;20.40;28.00;20.90;92709.00;;;;10231059;28;46257;-61
2021/12/26 01:16:49;;;;;;;0.73;0.50;;;20.40;28.00;20.80;92719.00;;;;10231139;28;45309;-61
2021/12/26 01:21:50;;;;;;;0.60;0.60;;;20.40;28.00;20.80;92721.00;;;;10214721;28;47269;-61
2021/12/26 01:26:51;;;;;;;0.50;0.40;;;20.40;28.00;20.80;92727.00;;;;10214488;28;47223;-61
2021/12/26 01:31:51;;;;;;;0.88;0.50;;;20.40;28.00;20.80;92726.00;;;;10231996;28;45374;-62
2021/12/26 01:36:52;;;;;;;0.60;0.50;;;20.40;28.00;20.80;92734.00;;;;10231980;28;46343;-63
2021/12/26 01:41:54;;;;;;;0.45;0.45;;;20.40;28.00;20.80;92746.00;;;;10238575;28;46653;-61
2021/12/26 01:46:54;;;;;;;0.45;0.45;;;20.40;28.00;20.80;92748.00;;;;10238444;28;45483;-62
2021/12/26 01:52:01;;;;;;;0.40;0.40;;;20.40;28.00;20.80;92750.00;;;;10236986;28;45118;-61
2021/12/26 01:57:05;;;;;;;0.70;0.40;;;20.30;28.00;20.80;92741.00;;;;10237274;28;45195;-61
2021/12/26 02:02:07;;;;;;;0.40;0.40;;;20.30;28.00;20.80;92757.00;;;;10230462;28;48158;-62
2021/12/26 02:07:10;;;;;;;0.60;0.60;;;20.40;28.00;20.80;92738.00;;;;10234727;28;45570;-62
2021/12/26 02:12:11;;;;;;;0.32;0.32;;;20.30;28.00;20.80;92754.00;;;;10236237;28;45459;-61
2021/12/26 02:17:16;;;;;;;0.40;0.40;;;20.30;28.00;20.80;92741.00;;;;10236182;28;45175;-62
2021/12/26 02:22:24;;;;;;;0.88;0.50;;;20.30;28.00;20.80;92747.00;;;;10232229;28;45298;-63
2021/12/26 02:27:31;;;;;;;0.40;0.40;;;20.30;28.00;20.80;92744.00;;;;10233681;28;46477;-62
2021/12/26 02:32:32;;;;;;;0.40;0.40;;;20.30;28.00;20.80;92740.00;;;;10236009;28;47395;-61
2021/12/26 02:37:33;;;;;;;0.40;0.40;;;20.30;28.00;20.80;92751.00;;;;10236884;28;45112;-61
2021/12/26 02:42:34;;;;;;;0.82;0.60;;;20.30;27.90;20.70;92729.00;;;;10235147;28;48011;-62
2021/12/26 02:47:40;;;;;;;0.70;0.50;;;20.30;28.00;20.70;92735.00;;;;10235248;28;45218;-61
2021/12/26 02:52:41;;;;;;;0.77;0.30;;;20.30;28.00;20.80;92743.00;;;;10235137;28;45239;-61
2021/12/26 02:57:50;;;;;;;0.52;0.52;;;20.30;28.00;20.70;92751.00;;;;10236232;28;45185;-61
2021/12/26 03:02:54;;;;;;;0.47;0.40;;;20.30;28.00;20.70;92734.00;;;;10236101;28;46476;-63
2021/12/26 03:07:56;;;;;;;0.60;0.57;;;20.30;28.00;20.70;92747.00;;;;10235684;28;45317;-61
2021/12/26 03:13:03;;;;;;;0.50;0.50;;;20.30;28.00;20.70;92757.00;;;;10234655;28;45981;-61
2021/12/26 03:18:05;;;;;;;0.32;0.32;;;20.30;28.00;20.70;92742.00;;;;10235708;28;45359;-62
2021/12/26 03:23:07;;;;;;;0.32;0.32;;;20.30;28.00;20.70;92753.00;;;;10234247;28;45635;-61
2021/12/26 03:28:10;;;;;;;0.50;0.40;;;20.20;28.00;20.70;92742.00;;;;10234086;28;46572;-61
2021/12/26 03:33:11;;;;;;;0.52;0.40;;;20.30;28.00;20.70;92748.00;;;;10233874;28;45379;-62
2021/12/26 03:38:14;;;;;;;0.30;0.30;;;20.30;28.00;20.70;92755.00;;;;10217716;28;47283;-61
2021/12/26 03:43:15;;;;;;;0.70;0.40;;;20.20;28.00;20.70;92750.00;;;;10233371;28;46440;-61
2021/12/26 03:48:21;;;;;;;0.55;0.30;;;20.20;28.00;20.70;92758.00;;;;10233652;28;45488;-62
2021/12/26 03:53:22;;;;;;;0.52;0.43;;;20.20;28.00;20.70;92760.00;;;;10233048;28;45252;-62
2021/12/26 03:58:23;;;;;;;0.30;0.30;;;20.30;28.00;20.70;92757.00;;;;10232943;28;45507;-61
2021/12/26 04:03:24;;;;;;;0.43;0.38;;;20.20;28.00;20.70;92758.00;;;;10232704;28;45208;-61
2021/12/26 04:08:24;;;;;;;0.38;0.30;;;20.20;28.00;20.70;92763.00;;;;10232774;28;45205;-63
2021/12/26 04:13:25;;;;;;;0.38;0.30;;;20.20;28.00;20.70;92756.00;;;;10231994;28;45221;-63
2021/12/26 04:18:26;;;;;;;0.47;0.30;;;20.20;28.00;20.70;92741.00;;;;10215404;28;47417;-63
2021/12/26 04:23:26;;;;;;;0.30;0.30;;;20.20;28.00;20.70;92753.00;;;;10231902;28;45632;-63
2021/12/26 04:28:27;;;;;;;1.58;0.30;;;20.20;28.00;20.70;92754.00;;;;10231481;28;47942;-62
2021/12/26 04:33:28;;;;;;;0.40;0.40;;;20.20;28.00;20.70;92762.00;;;;10231789;28;47207;-63
2021/12/26 04:38:29;;;;;;;0.47;0.32;;;20.20;28.00;20.70;92751.00;;;;10232461;28;45529;-63
2021/12/26 04:43:33;;;;;;;0.30;0.30;;;20.20;28.00;20.70;92751.00;;;;10231477;28;45369;-63
2021/12/26 04:48:37;;;;;;;0.20;0.20;;;20.20;28.00;20.60;92766.00;;;;10231077;28;45456;-63
2021/12/26 04:53:40;;;;;;;0.40;0.30;;;20.20;28.00;20.70;92760.00;;;;10214605;28;46932;-62
2021/12/26 04:58:40;;;;;;;0.40;0.32;;;20.20;28.00;20.70;92764.00;;;;10230312;28;45283;-63
2021/12/26 05:03:42;;;;;;;0.28;0.20;;;20.20;28.00;20.70;92768.00;;;;10230696;28;45427;-63
2021/12/26 05:08:42;;;;;;;0.50;0.35;;;20.20;28.00;20.70;92759.00;;;;10230445;28;47774;-63
2021/12/26 05:13:43;;;;;;;0.25;0.22;;;20.20;28.10;20.80;92773.00;;;;10235957;28;46515;-62
2021/12/26 05:18:44;;;;;;;0.30;0.20;;;20.30;28.10;20.80;92774.00;;;;10238737;28;45369;-63
2021/12/26 05:23:45;;;;;;;0.20;0.20;;;20.40;28.10;20.90;92773.00;;;;10237465;28;45650;-63
2021/12/26 05:28:45;;;;;;;0.20;0.13;;;20.40;28.00;20.90;92767.00;;;;10237552;28;45383;-63
2021/12/26 05:33:46;;;;;;;0.93;0.30;;;20.50;28.00;20.90;92766.00;;;;10237896;28;45624;-63
2021/12/26 05:38:47;;;;;;;0.20;0.20;;;20.50;28.00;21.00;92774.00;;;;10237932;28;45253;-63
2021/12/26 05:43:47;;;;;;;0.20;0.20;;;20.50;28.00;21.00;92778.00;;;;10238220;28;45407;-63
2021/12/26 05:48:48;;;;;;;0.40;0.40;;;20.50;27.90;21.00;92767.00;;;;10238002;28;45339;-62
2021/12/26 05:53:49;;;;;;;0.13;0.13;;;20.50;27.90;21.10;92776.00;;;;10236497;28;45553;-63
2021/12/26 05:58:49;;;;;;;0.20;0.20;;;20.60;27.90;21.00;92773.00;;;;10236267;28;45606;-63
2021/12/26 06:03:50;;;;;;;0.20;0.17;;;20.60;27.90;21.10;92775.00;;;;10237406;28;46145;-63
2021/12/26 06:08:51;;;;;;;0.10;0.10;;;20.60;27.90;21.10;92782.00;;;;10219827;28;48000;-62
2021/12/26 06:13:51;;;;;;;0.20;0.20;;;20.60;27.90;21.10;92786.00;;;;10235445;28;47195;-63
2021/12/26 06:18:52;;;;;;;0.20;0.20;;;20.70;27.90;21.10;92792.00;;;;10235409;28;46535;-63
2021/12/26 06:23:53;;;;;;;0.10;0.10;;;20.70;27.90;21.10;92784.00;;;;10235188;28;46057;-63
2021/12/26 06:28:53;;;;;;;0.20;0.17;;;20.70;27.80;21.20;92780.00;;;;10236402;28;45399;-62
2021/12/26 06:33:54;;;;;;;0.20;0.20;;;20.70;27.80;21.20;92795.00;;;;10234832;28;45332;-63
2021/12/26 06:38:55;;;;;;;0.20;0.20;;;20.70;27.80;21.20;92780.00;;;;10235083;28;45320;-63
2021/12/26 06:43:56;;;;;;;0.20;0.20;;;20.70;27.80;21.20;92771.00;;;;10234185;28;46593;-63
2021/12/26 06:48:56;;;;;;;0.30;0.30;;;20.70;27.80;21.20;92794.00;;;;10235662;28;45621;-63
2021/12/26 06:53:57;;;;;;;0.22;0.22;;;20.70;27.80;21.20;92793.00;;;;10236360;28;45774;-63
2021/12/26 06:58:58;;;;;;;1.10;0.30;;;20.80;27.80;21.20;92790.00;;;;10235532;28;45169;-60
2021/12/26 07:03:58;;;;;;;0.20;0.20;;;20.70;27.70;21.20;92788.00;;;;10234947;28;45427;-61
2021/12/26 07:08:59;;;;;;;0.32;0.32;;;20.80;27.80;21.20;92805.00;;;;10235871;28;45950;-62
2021/12/26 07:14:00;;;;;;;0.20;0.20;;;20.80;27.80;21.30;92809.00;;;;10234333;28;45293;-61
2021/12/26 07:19:01;;;;;;;0.22;0.22;;;20.80;27.80;21.30;92817.00;;;;10233872;28;47381;-61
2021/12/26 07:24:02;;;;;;;0.25;0.25;;;20.80;27.80;21.30;92791.00;;;;10233865;28;47934;-62
2021/12/26 07:29:03;;;;;;;0.20;0.20;;;20.80;27.70;21.30;92798.00;;;;10234393;28;45938;-61
2021/12/26 07:34:04;;;;;;;0.30;0.30;;;20.80;27.70;21.30;92821.00;;;;10232309;28;46426;-62
2021/12/26 07:39:05;;;;;;;0.40;0.20;;;20.80;27.70;21.30;92813.00;;;;10234454;28;45380;-61
2021/12/26 07:44:05;;;;;;;0.28;0.20;;;20.80;27.70;21.30;92827.00;;;;10233209;28;45155;-61
2021/12/26 07:49:06;;;;;;;0.63;0.20;;;20.80;27.70;21.30;92819.00;;;;10233198;28;47313;-63
2021/12/26 07:54:07;;;;;;;0.20;0.20;;;20.90;27.70;21.30;92821.00;;;;10233756;28;45292;-63
2021/12/26 07:59:08;;;;;;;0.40;0.22;;;20.90;27.70;21.30;92830.00;;;;10232188;28;45312;-63
2021/12/26 08:04:13;;;;;;;0.30;0.30;;;20.90;27.70;21.40;92820.00;;;;10233792;28;45622;-63
2021/12/26 08:09:14;;;;;;;0.50;0.30;;;20.90;27.70;21.40;92831.00;;;;10232435;28;45214;-63
2021/12/26 08:14:15;;;;;;;0.40;0.40;;;20.90;27.70;21.40;92838.00;;;;10231602;28;48024;-63
2021/12/26 08:19:16;;;;;;;0.40;0.30;;;20.90;27.70;21.40;92842.00;;;;10232009;28;45159;-63
2021/12/26 08:24:17;;;;;;;0.30;0.30;;;20.90;27.70;21.40;92832.00;;;;10232946;28;45298;-63
2021/12/26 08:29:23;;;;;;;0.60;0.45;;;20.90;27.70;21.40;92839.00;;;;10231355;28;45742;-63
2021/12/26 08:34:23;;;;;;;0.88;0.75;;;20.90;27.70;21.40;92856.00;;;;10232197;28;47734;-63
2021/12/26 08:39:27;;;;;;;2.92;1.10;;;20.90;27.60;21.40;92851.00;;;;10231229;28;46503;-63
2021/12/26 08:44:28;;;;;;;1.63;1.27;;;20.90;27.60;21.40;92852.00;;;;10231141;28;48040;-63
2021/12/26 08:49:28;;;;;;;1.48;1.27;;;20.90;27.70;21.40;92858.00;;;;10230955;28;46268;-62
2021/12/26 08:54:32;;;;;;;1.83;1.27;;;20.90;27.60;21.40;92853.00;;;;10232000;28;45220;-63
2021/12/26 08:59:33;;;;;;;2.45;1.35;;;20.90;27.70;21.40;92846.00;;;;10214995;28;46928;-63
2021/12/26 09:04:37;;;;;;;2.55;1.50;;;20.90;27.70;21.40;92866.00;;;;10230787;28;46231;-63
2021/12/26 09:09:38;;;;;;;2.25;1.30;;;20.90;27.70;21.40;92869.00;;;;10230665;28;45512;-63
2021/12/26 09:14:39;;;;;;;2.67;1.85;;;20.90;27.70;21.40;92862.00;;;;10230370;28;45467;-63
2021/12/26 09:19:40;;;;;;;1.83;1.38;;;20.90;27.70;21.40;92861.00;;;;10213543;28;47201;-62
2021/12/26 09:24:41;;;;;;;2.35;1.52;;;20.90;27.80;21.40;92861.00;;;;10230068;28;45247;-62
2021/12/26 09:29:42;;;;;;;2.78;1.70;;;20.90;27.80;21.40;92873.00;;;;10211732;28;47005;-63
2021/12/26 09:34:43;;;;;;;2.78;1.70;;;20.90;27.80;21.40;92878.00;;;;10218717;28;46240;-63
2021/12/26 09:39:43;;;;;;;3.33;1.75;;;20.90;27.80;21.40;92881.00;;;;10230176;28;46364;-63
2021/12/26 09:44:44;;;;;;;2.97;1.70;;;20.90;27.80;21.50;92882.00;;;;10226729;28;45312;-63
2021/12/26 09:49:45;;;;;;;3.05;1.65;;;21.00;27.90;21.50;92871.00;;;;10244682;28;46202;-63
2021/12/26 09:54:46;;;;;;;2.75;1.70;;;21.00;27.80;21.50;92867.00;;;;10243572;28;46982;-63
2021/12/26 09:59:48;;;;;;;2.50;1.50;;;21.00;27.90;21.50;92869.00;;;;10233143;28;47327;-63
2021/12/26 10:04:50;;;;;;;2.53;1.45;;;21.00;27.90;21.50;92848.00;;;;10236153;28;45163;-63
2021/12/26 10:09:53;;;;;;;3.05;1.50;;;21.00;27.90;21.50;92866.00;;;;10236597;28;45697;-63
2021/12/26 10:14:55;;;;;;;2.95;1.48;;;21.00;27.90;21.50;92851.00;;;;10235796;28;47163;-63
2021/12/26 10:20:08;;;;;;;1.95;1.42;;;21.00;27.90;21.50;92855.00;;;;10235278;28;45240;-62
2021/12/26 10:25:15;;;;;;;1.95;1.25;;;21.00;27.90;21.50;92859.00;;;;10235288;28;45569;-64
2021/12/26 10:30:21;;;;;;;1.55;1.33;;;21.00;28.00;21.50;92839.00;;;;10234897;28;47122;-63
2021/12/26 10:35:22;;;;;;;2.75;1.40;;;21.00;28.10;21.50;92829.00;;;;10232537;28;47057;-63
2021/12/26 10:40:31;;;;;;;2.42;1.40;;;21.00;28.20;21.50;92847.00;;;;10234805;28;45255;-64
2021/12/26 10:45:35;;;;;;;2.13;1.15;;;21.00;28.20;21.50;92855.00;;;;10250599;28;47197;-63
2021/12/26 10:50:40;;;;;;;1.58;1.23;;;21.00;28.30;21.50;92844.00;;;;10208334;28;45512;-63
2021/12/26 10:55:51;;;;;;;1.52;0.90;;;21.00;28.40;21.50;92842.00;;;;10194336;28;45416;-62
2021/12/26 11:00:55;;;;;;;2.15;1.20;;;21.00;28.50;21.50;92833.00;;;;10210461;28;46284;-63
2021/12/26 11:06:03;;;;;;;1.63;1.10;;;21.00;28.50;21.50;92834.00;;;;10233607;28;47013;-63
2021/12/26 11:11:20;;;;;;;1.42;1.13;;;21.00;28.60;21.50;92839.00;;;;10233903;28;46365;-63
2021/12/26 11:16:20;;;;;;;0.80;0.80;;;21.00;28.60;21.50;92848.00;;;;10233372;28;48244;-64
2021/12/26 11:21:22;;;;;;;1.10;1.00;;;21.00;28.60;21.50;92834.00;;;;10232945;28;48114;-63
2021/12/26 11:26:22;;;;;;;2.50;1.13;;;21.00;28.60;21.50;92838.00;;;;10232978;28;48301;-62
2021/12/26 11:31:29;;;;;;;1.08;0.95;;;21.00;28.70;21.50;92840.00;;;;10232653;28;45298;-63
2021/12/26 11:36:32;;;;;;;1.30;0.98;;;21.00;28.70;21.50;92824.00;;;;10233033;28;47956;-63
2021/12/26 11:41:53;;;;;;;1.83;1.10;;;21.00;28.70;21.50;92819.00;;;;10233960;28;45178;-64
2021/12/26 11:47:26;;;;;;;1.80;1.10;;;21.00;28.70;21.50;92817.00;;;;10232902;28;48586;-62
2021/12/26 11:53:03;;;;;;;2.10;1.10;;;21.00;29.00;21.50;92815.00;;;;10232072;28;46198;-62
2021/12/26 11:58:31;;;;;;;3.50;1.40;;;21.00;29.70;21.50;92810.00;;;;10232252;28;46203;-62
2021/12/26 12:03:32;;;;;;;2.97;1.50;;;21.00;30.20;21.50;92817.00;;;;10233405;28;45110;-62
2021/12/26 12:08:35;;;;;;;2.45;1.40;;;21.00;30.70;21.50;92808.00;;;;10231963;28;45355;-63
2021/12/26 12:13:38;;;;;;;2.80;1.30;;;21.00;31.20;21.60;92813.00;;;;10231808;28;45194;-62
2021/12/26 12:18:45;;;;;;;4.70;1.60;;;21.10;31.50;21.50;92805.00;;;;10247729;28;47163;-62
2021/12/26 12:24:07;;;;;;;3.22;1.48;;;21.10;31.80;21.60;92808.00;;;;10231773;28;45545;-63
2021/12/26 12:29:12;;;;;;;1.60;1.10;;;21.10;32.00;21.50;92815.00;;;;10232073;28;45464;-62
2021/12/26 12:34:13;;;;;;;5.05;1.70;;;21.10;32.30;21.60;92814.00;;;;10230701;28;46986;-62
2021/12/26 12:39:20;;;;;;;2.78;1.30;;;21.10;32.40;21.60;92806.00;;;;10230854;28;45439;-62
2021/12/26 12:44:35;;;;;;;3.45;1.60;;;21.10;32.40;21.60;92817.00;;;;10231549;28;45378;-61
2021/12/26 12:49:53;;;;;;;6.05;1.90;;;21.10;32.50;21.60;92807.00;;;;10232892;28;46705;-61
2021/12/26 12:54:54;;;;;;;4.40;1.50;;;21.10;32.60;21.60;92818.00;;;;10231232;28;45244;-61
2021/12/26 12:59:54;;;;;;;3.65;1.80;;;21.10;32.70;21.60;92800.00;;;;10246983;28;47078;-61
2021/12/26 13:04:55;;;;;;;3.95;1.65;;;21.10;32.70;21.60;92822.00;;;;10232583;28;46278;-62
2021/12/26 13:10:10;;;;;;;4.55;1.55;;;21.10;32.70;21.60;92812.00;;;;10230855;28;45452;-61
2021/12/26 13:15:14;;;;;;;3.08;1.60;;;21.10;32.70;21.60;92819.00;;;;10230718;28;46366;-61
2021/12/26 13:20:23;;;;;;;2.90;1.50;;;21.10;32.80;21.60;92818.00;;;;10230284;28;47266;-62
2021/12/26 13:25:40;;;;;;;3.60;1.60;;;21.10;32.80;21.60;92816.00;;;;10213933;28;47075;-62
2021/12/26 13:30:43;;;;;;;;;;;21.10;32.80;21.60;92807.00;;;;10223799;28;47096;-63
2021/12/26 13:35:44;;;;;;;3.33;1.40;;;21.10;32.90;21.60;92799.00;;;;10230751;28;45339;-62
2021/12/26 13:40:49;;;;;;;3.03;1.33;;;21.10;32.90;21.60;92808.00;;;;10236905;28;45591;-63
2021/12/26 13:45:54;;;;;;;3.20;1.25;;;21.10;32.90;21.60;92802.00;;;;10235734;28;47476;-62
2021/12/26 13:50:55;;;;;;;1.40;0.93;;;21.10;32.90;21.60;92807.00;;;;10241094;28;45950;-62
2021/12/26 13:55:59;;;;;;;1.80;1.10;;;21.10;32.90;21.60;92797.00;;;;10196571;28;45264;-62
2021/12/26 14:00:59;;;;;;;2.30;1.20;;;21.10;32.90;21.60;92812.00;;;;10214895;28;45402;-63
2021/12/26 14:06:00;;;;;;;2.30;1.20;;;21.10;32.80;21.60;92811.00;;;;10235663;28;45271;-63
2021/12/26 14:11:05;;;;;;;2.13;1.20;;;21.20;32.90;21.70;92815.00;;;;10234426;28;47079;-62
2021/12/26 14:16:06;;;;;;;2.20;1.10;;;21.20;32.80;21.70;92802.00;;;;10235220;28;45473;-62
2021/12/26 14:21:11;;;;;;;2.70;1.40;;;21.20;32.90;21.70;92815.00;;;;10232785;28;46961;-63
2021/12/26 14:26:16;;;;;;;2.45;1.23;;;21.20;32.90;21.60;92805.00;;;;10225002;28;47046;-63
2021/12/26 14:31:36;;;;;;;2.90;1.75;;;21.20;32.90;21.60;92815.00;;;;10235370;28;46420;-63
2021/12/26 14:37:04;;;;;;;2.70;1.83;;;21.10;32.70;21.60;92819.00;;;;10236500;28;45539;-62
2021/12/26 14:42:15;;;;;;;2.65;1.77;;;21.10;32.70;21.60;92830.00;;;;10235910;28;45212;-63
2021/12/26 14:47:27;;;;;;;3.10;1.80;;;21.10;32.60;21.60;92815.00;;;;10234131;28;45250;-62
2021/12/26 14:52:30;;;;;;;3.67;2.15;;;21.10;32.60;21.60;92805.00;;;;10217498;28;45327;-63
2021/12/26 14:57:36;;;;;;;3.75;1.90;;;21.10;32.60;21.60;92825.00;;;;10194058;28;47932;-63
2021/12/26 15:02:53;;;;;;;2.58;1.70;;;21.10;32.60;21.60;92817.00;;;;10208291;28;48037;-63
2021/12/26 15:08:00;;;;;;;3.40;1.90;;;21.10;32.50;21.60;92814.00;;;;10207127;28;46120;-62
2021/12/26 15:13:01;;;;;;;3.05;1.80;;;21.10;32.50;21.70;92811.00;;;;10222789;28;46382;-62
2021/12/26 15:18:14;;;;;;;2.67;1.50;;;21.10;32.40;21.60;92807.00;;;;10233262;28;46549;-63
2021/12/26 15:23:22;;;;;;;3.45;1.73;;;21.10;32.30;21.60;92817.00;;;;10216962;28;46884;-62
2021/12/26 15:28:45;;;;;;;2.55;1.60;;;21.10;32.30;21.60;92813.00;;;;10249353;28;47197;-63
2021/12/26 15:33:53;;;;;;;3.30;1.80;;;21.10;32.20;21.60;92801.00;;;;10231375;28;45310;-63
2021/12/26 15:38:59;;;;;;;2.70;1.50;;;21.10;32.10;21.60;92817.00;;;;10219264;28;46472;-62
2021/12/26 15:44:04;;;;;;;1.73;1.20;;;21.20;32.20;21.60;92805.00;;;;10210169;28;46063;-63
2021/12/26 15:49:07;;;;;;;2.42;1.17;;;21.10;32.00;21.60;92821.00;;;;10208945;28;45562;-61
2021/12/26 15:54:12;;;;;;;1.90;1.20;;;21.10;31.90;21.60;92820.00;;;;10232767;28;45370;-61
2021/12/26 15:59:14;;;;;;;1.77;1.10;;;21.20;31.90;21.60;92823.00;;;;10224383;28;46229;-63
2021/12/26 16:04:15;;;;;;;1.60;1.10;;;21.10;31.80;21.60;92828.00;;;;10215184;28;45348;-63
2021/12/26 16:09:16;;;;;;;2.05;1.45;;;21.10;31.60;21.60;92811.00;;;;10210352;28;45248;-63
2021/12/26 16:14:16;;;;;;;3.72;1.58;;;21.10;31.60;21.60;92826.00;;;;10214167;28;47586;-63
2021/12/26 16:19:17;;;;;;;2.50;1.30;;;21.10;31.50;21.60;92807.00;;;;10191412;28;47420;-63
2021/12/26 16:24:18;;;;;;;1.45;1.10;;;21.10;31.40;21.60;92816.00;;;;10191726;28;46356;-62
2021/12/26 16:29:18;;;;;;;1.85;1.27;;;21.10;31.40;21.60;92838.00;;;;10193106;28;45606;-62
2021/12/26 16:34:19;;;;;;;2.58;1.48;;;21.10;31.20;21.60;92825.00;;;;10191505;28;47099;-62
2021/12/26 16:39:21;;;;;;;2.67;1.58;;;21.10;31.10;21.60;92814.00;;;;10191479;28;45259;-63
2021/12/26 16:44:21;;;;;;;2.65;1.58;;;21.10;31.10;21.60;92838.00;;;;10192424;28;45182;-63
2021/12/26 16:49:23;;;;;;;2.95;1.40;;;21.20;31.00;21.60;92814.00;;;;10191320;28;45422;-63
2021/12/26 16:54:26;;;;;;;2.97;1.65;;;21.10;30.80;21.60;92817.00;;;;10191440;28;45124;-63
2021/12/26 16:59:27;;;;;;;2.70;1.70;;;21.10;30.70;21.60;92816.00;;;;10190918;28;47054;-63
2021/12/26 17:04:28;;;;;;;2.60;1.77;;;21.10;30.60;21.60;92818.00;;;;10192322;28;46180;-63
2021/12/26 17:09:30;;;;;;;2.08;1.60;;;21.10;30.50;21.60;92822.00;;;;10195990;28;46250;-63
2021/12/26 17:14:31;;;;;;;3.00;1.55;;;21.10;30.40;21.60;92814.00;;;;10225454;28;45287;-63
2021/12/26 17:19:32;;;;;;;2.45;1.77;;;21.10;30.30;21.60;92822.00;;;;10237280;28;47050;-63
2021/12/26 17:24:34;;;;;;;2.38;1.60;;;21.10;30.20;21.60;92815.00;;;;10228060;28;45721;-62
2021/12/26 17:29:35;;;;;;;2.25;1.60;;;21.10;30.10;21.60;92821.00;;;;10235630;28;46391;-62
2021/12/26 17:34:37;;;;;;;2.22;1.55;;;21.10;30.00;21.60;92821.00;;;;10235442;28;46365;-62
2021/12/26 17:39:40;;;;;;;1.92;1.55;;;21.10;30.00;21.60;92843.00;;;;10248852;28;46676;-63
2021/12/26 17:44:41;;;;;;;3.03;1.60;;;21.10;30.00;21.60;92823.00;;;;10251768;28;45568;-63
2021/12/26 17:49:42;;;;;;;2.50;1.60;;;21.10;30.00;21.60;92830.00;;;;10234937;28;45333;-63
2021/12/26 17:54:42;;;;;;;1.90;1.20;;;21.10;29.90;21.60;92812.00;;;;10229275;28;45514;-63
2021/12/26 17:59:43;;;;;;;2.38;1.67;;;21.10;29.90;21.60;92831.00;;;;10220799;28;45406;-64
2021/12/26 18:04:44;;;;;;;1.85;1.35;;;21.20;29.90;21.70;92830.00;;;;10214421;28;45293;-63
2021/12/26 18:09:44;;;;;;;2.10;1.50;;;21.20;29.90;21.70;92828.00;;;;10213712;28;46723;-63
2021/12/26 18:14:45;;;;;;;2.20;1.42;;;21.20;29.80;21.70;92823.00;;;;10211805;28;46948;-63
2021/12/26 18:19:46;;;;;;;1.77;1.25;;;21.20;29.80;21.70;92820.00;;;;10239371;23;45443;-61
2021/12/26 18:24:47;;;;;;;1.40;1.10;;;21.20;29.70;21.70;92826.00;;;;10218171;28;45588;-61
2021/12/26 18:29:48;;;;;;;2.00;1.20;;;21.20;29.70;21.70;92816.00;;;;10215616;28;45187;-61
2021/12/26 18:34:48;;;;;;;1.88;1.30;;;21.20;29.70;21.60;92812.00;;;;10211058;28;46555;-60
2021/12/26 18:39:49;;;;;;;1.50;1.20;;;21.20;29.70;21.70;92822.00;;;;10208127;28;47033;-61
2021/12/26 18:44:50;;;;;;;1.42;1.08;;;21.20;29.70;21.70;92831.00;;;;10227475;28;47719;-61
2021/12/26 18:49:50;;;;;;;1.02;0.90;;;21.20;29.60;21.70;92822.00;;;;10212681;28;45381;-61
2021/12/26 18:54:51;;;;;;;0.93;0.90;;;21.20;29.60;21.70;92814.00;;;;10216389;28;45495;-60
2021/12/26 18:59:52;;;;;;;1.85;1.15;;;21.20;29.60;21.70;92828.00;;;;10209947;28;46095;-62
2021/12/26 19:04:53;;;;;;;1.40;1.00;;;21.20;29.60;21.70;92807.00;;;;10210422;28;45254;-61
2021/12/26 19:09:53;;;;;;;1.23;1.00;;;21.20;29.60;21.70;92820.00;;;;10213366;28;45761;-61
2021/12/26 19:14:54;;;;;;;1.08;0.90;;;21.20;29.60;21.70;92834.00;;;;10215338;28;46095;-61
2021/12/26 19:19:55;;;;;;;1.20;0.98;;;21.20;29.50;21.70;92824.00;;;;10192078;28;45568;-61
2021/12/26 19:24:55;;;;;;;1.38;0.93;;;21.20;29.50;21.70;92817.00;;;;10193829;28;46223;-61
2021/12/26 19:29:56;;;;;;;1.08;0.85;;;21.20;29.50;21.70;92820.00;;;;10227735;28;46602;-61
2021/12/26 19:34:57;;;;;;;0.70;0.70;;;21.20;29.40;21.70;92814.00;;;;10232838;28;46924;-62
2021/12/26 19:39:57;;;;;;;1.02;0.82;;;21.20;29.40;21.70;92797.00;;;;10233157;28;45574;-61
2021/12/26 19:44:58;;;;;;;0.80;0.70;;;21.20;29.40;21.70;92802.00;;;;10232580;28;46891;-61
2021/12/26 19:49:58;;;;;;;1.30;1.00;;;21.20;29.40;21.70;92822.00;;;;10231652;28;46704;-61
2021/12/26 19:54:59;;;;;;;0.93;0.82;;;21.20;29.40;21.70;92814.00;;;;10232529;28;47510;-61
2021/12/26 20:00:02;;;;;;;1.80;1.20;;;21.20;29.30;21.70;92822.00;;;;10216129;28;47285;-61
2021/12/26 20:05:04;;;;;;;1.27;1.05;;;21.20;29.30;21.70;92805.00;;;;10215293;28;47301;-61
2021/12/26 20:10:06;;;;;;;1.35;1.05;;;21.20;29.30;21.70;92814.00;;;;10231831;28;46651;-61
2021/12/26 20:15:07;;;;;;;1.45;0.90;;;21.20;29.30;21.70;92805.00;;;;10232012;28;46505;-61
2021/12/26 20:20:10;;;;;;;1.17;0.90;;;21.20;29.30;21.70;92830.00;;;;10231148;28;45415;-61
2021/12/26 20:25:12;;;;;;;2.17;1.23;;;21.20;29.30;21.70;92816.00;;;;10231605;28;46041;-61
2021/12/26 20:30:12;;;;;;;1.75;1.20;;;21.20;29.20;21.70;92823.00;;;;10231319;28;45503;-61
2021/12/26 20:35:13;;;;;;;1.95;1.30;;;21.20;29.30;21.70;92830.00;;;;10231027;28;45373;-61
2021/12/26 20:40:14;;;;;;;1.35;1.02;;;21.20;29.20;21.70;92817.00;;;;10230486;28;45165;-61
2021/12/26 20:45:15;;;;;;;1.50;1.20;;;21.20;29.20;21.70;92817.00;;;;10227424;28;45267;-61
2021/12/26 20:50:16;;;;;;;1.20;1.10;;;21.20;29.20;21.70;92808.00;;;;10209259;28;47171;-61
2021/12/26 20:55:17;;;;;;;0.95;0.85;;;21.20;29.20;21.70;92793.00;;;;10226367;28;47325;-61
2021/12/26 21:00:24;;;;;;;1.27;1.10;;;21.20;29.20;21.70;92789.00;;;;10230040;28;45332;-61
2021/12/26 21:05:25;;;;;;;1.42;1.20;;;21.20;29.20;21.70;92793.00;;;;10230304;28;45687;-60
2021/12/26 21:10:26;;;;;;;1.00;0.90;;;21.20;29.20;21.70;92787.00;;;;10231659;28;46639;-60
2021/12/26 21:15:27;;;;;;;1.27;0.93;;;21.20;29.10;21.70;92785.00;;;;10213600;28;46995;-61
2021/12/26 21:20:32;;;;;;;1.30;0.90;;;21.20;29.10;21.70;92804.00;;;;10229706;28;45184;-61
2021/12/26 21:25:33;;;;;;;1.17;0.90;;;21.20;29.10;21.60;92809.00;;;;10230706;28;47361;-61
2021/12/26 21:30:35;;;;;;;1.02;0.90;;;21.20;29.10;21.60;92803.00;;;;10229525;28;46552;-61
2021/12/26 21:35:35;;;;;;;0.88;0.70;;;21.10;29.00;21.60;92802.00;;;;10229204;28;46577;-61
2021/12/26 21:40:36;;;;;;;1.20;0.80;;;21.10;29.00;21.50;92793.00;;;;10229568;28;46523;-64
2021/12/26 21:45:37;;;;;;;1.38;0.80;;;21.10;29.10;21.50;92783.00;;;;10229183;28;45175;-64
2021/12/26 21:50:38;;;;;;;1.17;0.77;;;21.10;29.10;21.50;92808.00;;;;10230249;28;45217;-63
2021/12/26 21:55:39;;;;;;;0.80;0.70;;;21.00;29.00;21.40;92796.00;;;;10233098;28;45179;-63
2021/12/26 22:00:40;;;;;;;0.60;0.60;;;21.00;29.10;21.40;92798.00;;;;10235623;28;48251;-63
2021/12/26 22:05:41;;;;;;;1.25;0.60;;;21.00;29.10;21.40;92791.00;;;;10235640;28;47028;-63
2021/12/26 22:10:42;;;;;;;0.77;0.60;;;20.90;29.10;21.40;92790.00;;;;10236955;28;45119;-63